Time;durP1;ratioP1;P1;durP2;ratioP2;P2;SDS_P1;SDS_P2;PMS_P1;PMS_P2;Temp;Humidity;BMP_temperature;BMP_pressure;BME280_temperature;BME280_humidity;BME280_pressure;Samples;Min_cycle;Max_cycle;Signal;HPM_P1;HPM_P2
2022/06/11 00:01:47;;;;;;;2.20;2.00;;;17.10;99.90;;;;;;5154449;28;20459;-63
2022/06/11 00:04:45;;;;;;;3.65;2.33;;;17.00;99.90;;;;;;5146213;28;20046;-62
2022/06/11 00:07:23;;;;;;;2.55;2.08;;;17.10;99.90;;;;;;5155038;28;20050;-62
2022/06/11 00:09:55;;;;;;;2.97;2.67;;;17.10;99.90;;;;;;5154331;28;20286;-62
2022/06/11 00:12:27;;;;;;;2.08;1.92;;;17.20;99.90;;;;;;5168166;28;20043;-60
2022/06/11 00:14:59;;;;;;;2.60;2.40;;;17.10;99.90;;;;;;5154118;28;20050;-62
2022/06/11 00:17:33;;;;;;;2.90;2.08;;;17.10;99.90;;;;;;5171642;28;20469;-61
2022/06/11 00:20:09;;;;;;;3.63;2.45;;;17.10;99.90;;;;;;5138868;28;20498;-61
2022/06/11 00:22:41;;;;;;;3.45;2.38;;;17.10;99.90;;;;;;5155378;28;20056;-60
2022/06/11 00:25:18;;;;;;;2.33;2.22;;;17.10;99.90;;;;;;5173102;28;20046;-60
2022/06/11 00:27:52;;;;;;;3.13;2.30;;;17.10;99.90;;;;;;5169837;28;20030;-62
2022/06/11 00:30:26;;;;;;;2.38;2.17;;;17.10;99.90;;;;;;5169578;28;20278;-60
2022/06/11 00:33:01;;;;;;;2.78;2.50;;;17.00;99.90;;;;;;5160176;28;20050;-61
2022/06/11 00:35:40;;;;;;;3.47;2.22;;;17.00;99.90;;;;;;5143798;28;20038;-62
2022/06/11 00:38:16;;;;;;;2.45;2.25;;;16.90;99.90;;;;;;5152501;28;20054;-62
2022/06/11 00:40:53;;;;;;;2.33;2.15;;;16.90;99.90;;;;;;5119059;28;20039;-61
2022/06/11 00:43:31;;;;;;;2.33;2.10;;;17.00;99.90;;;;;;5155722;28;20038;-62
2022/06/11 00:46:59;;;;;;;2.42;2.22;;;17.00;99.90;;;;;;5155325;28;20600;-60
2022/06/11 00:49:42;;;;;;;2.65;2.45;;;17.00;99.90;;;;;;5154407;28;20045;-62
2022/06/11 00:52:30;;;;;;;4.65;2.58;;;17.00;99.90;;;;;;5166341;28;20058;-60
2022/06/11 00:55:23;;;;;;;2.40;2.20;;;16.90;99.90;;;;;;5161703;28;20250;-61
2022/06/11 00:58:02;;;;;;;2.30;2.10;;;16.90;99.90;;;;;;5155635;28;20046;-61
2022/06/11 01:00:52;;;;;;;2.85;2.50;;;16.90;99.90;;;;;;5169983;28;20038;-62
2022/06/11 01:03:48;;;;;;;3.90;2.13;;;17.00;99.90;;;;;;5167811;28;20106;-62
2022/06/11 01:06:42;;;;;;;2.50;2.30;;;17.00;99.90;;;;;;5162569;28;20046;-62
2022/06/11 01:10:01;;;;;;;4.27;2.60;;;16.90;99.90;;;;;;5172262;28;20050;-63
2022/06/11 01:12:52;;;;;;;2.58;2.38;;;16.90;99.90;;;;;;5139145;28;20080;-61
2022/06/11 01:15:36;;;;;;;3.28;2.38;;;16.90;99.90;;;;;;5139733;28;20385;-59
2022/06/11 01:18:38;;;;;;;2.05;1.80;;;16.90;99.90;;;;;;5141697;28;20574;-62
2022/06/11 01:21:57;;;;;;;4.90;2.95;;;16.80;99.90;;;;;;5153732;28;20037;-63
2022/06/11 01:24:58;;;;;;;2.88;2.60;;;16.80;99.90;;;;;;5153576;28;20034;-61
2022/06/11 01:27:45;;;;;;;2.83;2.60;;;16.70;99.90;;;;;;5173402;28;20038;-61
2022/06/11 01:30:50;;;;;;;2.55;2.08;;;16.80;99.90;;;;;;5158416;28;20039;-62
2022/06/11 01:33:32;;;;;;;2.60;2.40;;;16.80;99.90;;;;;;5173333;28;20046;-61
2022/06/11 01:36:17;;;;;;;2.20;2.00;;;16.80;99.90;;;;;;5140835;28;20046;-60
2022/06/11 01:39:38;;;;;;;2.60;1.92;;;16.80;99.90;;;;;;5156543;28;20054;-62
2022/06/11 01:42:26;;;;;;;2.75;2.17;;;16.80;99.90;;;;;;5156144;28;20057;-62
2022/06/11 01:45:29;;;;;;;4.28;2.47;;;16.80;99.90;;;;;;5169394;28;20038;-61
2022/06/11 01:48:06;;;;;;;2.17;1.95;;;16.70;99.90;;;;;;5140033;28;20049;-62
2022/06/11 01:50:42;;;;;;;2.45;2.25;;;16.60;99.90;;;;;;5143181;28;20042;-61
2022/06/11 01:53:48;;;;;;;2.50;2.30;;;16.50;99.90;;;;;;5170956;28;20030;-62
2022/06/11 01:56:42;;;;;;;3.70;2.55;;;16.40;99.90;;;;;;5172390;28;20050;-61
2022/06/11 01:59:45;;;;;;;3.28;2.65;;;16.40;99.90;;;;;;5158735;28;20053;-61
2022/06/11 02:02:53;;;;;;;3.08;2.65;;;16.40;99.90;;;;;;5171407;28;20038;-61
2022/06/11 02:05:31;;;;;;;2.35;2.15;;;16.40;99.90;;;;;;5155987;28;20066;-61
2022/06/11 02:08:23;;;;;;;2.40;2.20;;;16.50;99.90;;;;;;5140246;28;20045;-61
2022/06/11 02:11:16;;;;;;;2.25;2.05;;;16.50;99.90;;;;;;5168582;28;20058;-61
2022/06/11 02:14:12;;;;;;;2.28;2.05;;;16.50;99.90;;;;;;5172344;28;20160;-61
2022/06/11 02:16:49;;;;;;;2.63;2.42;;;16.40;99.90;;;;;;5157467;28;20033;-61
2022/06/11 02:19:36;;;;;;;3.08;2.58;;;16.40;99.90;;;;;;5156615;28;20491;-60
2022/06/11 02:22:16;;;;;;;2.65;2.45;;;16.30;99.90;;;;;;5156298;28;20670;-61
2022/06/11 02:25:11;;;;;;;2.35;2.10;;;16.30;99.90;;;;;;5157693;28;20052;-63
2022/06/11 02:27:46;;;;;;;3.10;2.80;;;16.20;99.90;;;;;;5155698;28;20530;-61
2022/06/11 02:30:23;;;;;;;2.60;2.40;;;16.20;99.90;;;;;;5171890;28;20038;-62
2022/06/11 02:32:58;;;;;;;3.15;2.85;;;16.30;99.90;;;;;;5172700;28;20056;-61
2022/06/11 02:35:35;;;;;;;2.67;2.47;;;16.20;99.90;;;;;;5137092;28;20057;-60
2022/06/11 02:38:15;;;;;;;3.45;2.70;;;16.20;99.90;;;;;;5160368;28;20053;-61
2022/06/11 02:40:59;;;;;;;2.63;2.20;;;16.20;99.90;;;;;;5156152;28;20574;-60
2022/06/11 02:43:31;;;;;;;4.82;2.85;;;16.30;99.90;;;;;;5155787;28;20488;-62
2022/06/11 02:48:57;;;;;;;2.67;2.42;;;16.30;99.90;;;;;;5156982;28;20038;-60
2022/06/11 02:51:33;;;;;;;2.47;2.28;;;16.30;99.90;;;;;;5136161;28;20643;-59
2022/06/11 02:54:16;;;;;;;2.67;2.47;;;16.30;99.90;;;;;;5152242;28;20038;-60
2022/06/11 02:56:56;;;;;;;2.65;2.33;;;16.30;99.90;;;;;;5146145;28;20030;-60
2022/06/11 02:59:30;;;;;;;3.10;2.38;;;16.20;99.90;;;;;;5168569;28;20039;-61
2022/06/11 03:02:05;;;;;;;2.35;2.00;;;16.30;99.90;;;;;;5171759;28;20046;-62
2022/06/11 03:04:41;;;;;;;3.33;2.42;;;16.30;99.90;;;;;;5143637;28;20054;-61
2022/06/11 03:07:13;;;;;;;2.35;2.15;;;16.40;99.90;;;;;;5148473;28;20038;-61
2022/06/11 03:09:48;;;;;;;5.03;2.65;;;16.30;99.90;;;;;;5172567;28;20127;-60
2022/06/11 03:12:22;;;;;;;4.90;2.90;;;16.30;99.90;;;;;;5155148;28;20150;-61
2022/06/11 03:14:59;;;;;;;2.78;2.30;;;16.20;99.90;;;;;;5153905;28;20034;-63
2022/06/11 03:17:31;;;;;;;2.33;2.10;;;16.20;99.90;;;;;;5171899;28;20042;-61
2022/06/11 03:20:13;;;;;;;2.22;2.03;;;16.40;99.90;;;;;;5154824;28;20038;-60
2022/06/11 03:22:53;;;;;;;5.40;2.42;;;16.40;99.90;;;;;;5141240;28;20064;-59
2022/06/11 03:25:24;;;;;;;4.95;2.72;;;16.30;99.90;;;;;;5171766;28;20223;-60
2022/06/11 03:28:09;;;;;;;2.15;1.95;;;16.40;99.90;;;;;;5156771;28;20323;-60
2022/06/11 03:30:41;;;;;;;2.50;2.30;;;16.40;99.90;;;;;;5171967;28;20077;-61
2022/06/11 03:33:15;;;;;;;5.72;2.65;;;16.50;99.90;;;;;;5171685;28;20034;-61
2022/06/11 03:35:50;;;;;;;3.25;2.40;;;16.30;99.90;;;;;;5172388;28;20362;-61
2022/06/11 03:38:24;;;;;;;2.13;2.03;;;16.30;99.90;;;;;;5171874;28;20034;-61
2022/06/11 03:40:58;;;;;;;2.33;2.20;;;16.30;99.90;;;;;;5154688;28;20056;-60
2022/06/11 03:43:32;;;;;;;2.55;2.33;;;16.50;99.90;;;;;;5138902;28;20038;-59
2022/06/11 03:46:08;;;;;;;2.30;2.10;;;16.60;99.90;;;;;;5156257;28;20058;-61
2022/06/11 03:48:40;;;;;;;2.55;2.33;;;16.50;99.90;;;;;;5154684;28;20331;-60
2022/06/11 03:51:16;;;;;;;3.63;2.45;;;16.60;99.90;;;;;;5139728;28;20047;-60
2022/06/11 03:53:50;;;;;;;2.38;2.17;;;16.70;99.90;;;;;;5171722;28;20034;-61
2022/06/11 03:56:33;;;;;;;3.88;2.47;;;16.70;99.90;;;;;;5171037;28;20046;-62
2022/06/11 03:59:08;;;;;;;3.33;3.08;;;16.70;99.90;;;;;;5155469;28;20026;-62
2022/06/11 04:01:44;;;;;;;2.63;2.10;;;16.90;99.90;;;;;;5163660;28;20415;-61
2022/06/11 04:04:20;;;;;;;2.60;2.40;;;17.00;99.90;;;;;;5140667;28;20351;-63
2022/06/11 04:06:58;;;;;;;2.13;1.92;;;17.10;99.90;;;;;;5138473;28;20046;-61
2022/06/11 04:09:35;;;;;;;2.53;2.33;;;17.20;99.90;;;;;;5154543;28;20038;-60
2022/06/11 04:12:11;;;;;;;3.17;2.17;;;17.30;99.90;;;;;;5146516;28;20381;-63
2022/06/11 04:14:49;;;;;;;2.40;2.20;;;17.30;99.90;;;;;;5154494;28;20141;-61
2022/06/11 04:17:29;;;;;;;2.22;2.08;;;17.40;99.90;;;;;;5156886;28;20040;-62
2022/06/11 04:20:10;;;;;;;3.17;2.65;;;17.40;99.90;;;;;;5171758;28;20038;-60
2022/06/11 04:22:43;;;;;;;2.40;1.85;;;17.40;99.90;;;;;;5156892;28;20042;-60
2022/06/11 04:25:16;;;;;;;3.67;1.92;;;17.50;99.90;;;;;;5172952;28;20448;-60
2022/06/11 04:27:53;;;;;;;2.45;2.22;;;17.60;99.90;;;;;;5154332;28;20042;-64
2022/06/11 04:30:28;;;;;;;2.40;2.20;;;17.60;99.90;;;;;;5139844;28;20052;-61
2022/06/11 04:33:03;;;;;;;4.93;2.42;;;17.70;99.90;;;;;;5154403;28;20050;-62
2022/06/11 04:35:37;;;;;;;2.30;2.10;;;17.80;99.90;;;;;;5171521;28;20046;-61
2022/06/11 04:38:09;;;;;;;2.58;2.03;;;17.80;99.90;;;;;;5168454;28;20049;-61
2022/06/11 04:40:44;;;;;;;2.75;2.00;;;17.80;99.90;;;;;;5154606;28;20503;-60
2022/06/11 04:43:19;;;;;;;2.08;1.98;;;17.90;99.90;;;;;;5157274;28;20515;-60
2022/06/11 04:45:56;;;;;;;2.50;2.13;;;17.90;99.90;;;;;;5158044;28;20034;-60
2022/06/11 04:48:33;;;;;;;1.55;1.45;;;18.00;99.90;;;;;;5175057;28;20428;-62
2022/06/11 04:51:07;;;;;;;3.10;2.50;;;18.10;99.90;;;;;;5156791;28;20267;-62
2022/06/11 04:53:42;;;;;;;;;;;18.20;99.90;;;;;;5175847;28;20058;-61
2022/06/11 04:56:31;;;;;;;2.22;2.03;;;18.20;99.90;;;;;;5174459;28;19918;-61
2022/06/11 04:59:07;;;;;;;2.20;2.00;;;18.20;99.90;;;;;;5174704;28;20052;-61
2022/06/11 05:01:45;;;;;;;3.78;2.00;;;18.20;99.90;;;;;;5157824;28;20064;-62
2022/06/11 05:04:23;;;;;;;2.88;2.00;;;18.20;99.90;;;;;;5156494;28;20042;-62
2022/06/11 05:07:00;;;;;;;2.25;2.05;;;18.30;99.90;;;;;;5154450;28;20047;-61
2022/06/11 05:09:34;;;;;;;6.32;2.25;;;18.40;99.90;;;;;;5158435;28;20030;-62
2022/06/11 05:12:10;;;;;;;2.17;1.98;;;18.50;99.90;;;;;;5141974;28;20050;-61
2022/06/11 05:14:41;;;;;;;2.17;1.98;;;18.50;99.90;;;;;;5142683;28;20036;-60
2022/06/11 05:17:18;;;;;;;2.03;1.83;;;18.70;99.90;;;;;;5166225;28;20468;-62
2022/06/11 05:19:55;;;;;;;2.38;1.90;;;18.60;99.90;;;;;;5158385;28;20258;-61
2022/06/11 05:22:27;;;;;;;2.40;2.20;;;18.50;99.90;;;;;;5173760;28;20465;-59
2022/06/11 05:25:04;;;;;;;2.15;1.98;;;18.40;99.90;;;;;;5172457;28;20030;-60
2022/06/11 05:27:40;;;;;;;2.20;2.00;;;18.50;99.90;;;;;;5149704;28;20054;-61
2022/06/11 05:30:18;;;;;;;2.33;1.92;;;18.60;99.90;;;;;;5126674;28;20038;-61
2022/06/11 05:32:53;;;;;;;2.92;2.38;;;18.60;99.90;;;;;;5158118;28;20054;-62
2022/06/11 05:35:32;;;;;;;3.95;2.00;;;18.60;99.90;;;;;;5174016;28;20069;-60
2022/06/11 05:38:15;;;;;;;3.60;1.95;;;18.70;99.90;;;;;;5172740;28;20026;-61
2022/06/11 05:40:54;;;;;;;4.80;1.95;;;18.80;99.90;;;;;;5156987;28;20049;-61
2022/06/11 05:43:30;;;;;;;2.20;2.03;;;19.00;99.90;;;;;;5172101;28;20038;-61
2022/06/11 05:46:15;;;;;;;2.25;2.05;;;18.90;99.90;;;;;;5150372;28;20053;-61
2022/06/11 05:48:59;;;;;;;2.08;1.90;;;18.80;99.90;;;;;;5141741;28;20042;-62
2022/06/11 05:51:45;;;;;;;4.63;2.10;;;18.80;99.90;;;;;;5170003;28;20038;-62
2022/06/11 05:54:28;;;;;;;5.75;2.88;;;18.90;99.90;;;;;;5156582;28;20048;-61
2022/06/11 05:57:06;;;;;;;2.33;1.98;;;18.90;99.90;;;;;;5156903;28;20042;-60
2022/06/11 05:59:49;;;;;;;1.90;1.80;;;19.00;99.90;;;;;;5157398;28;20025;-61
2022/06/11 06:02:26;;;;;;;4.45;2.00;;;19.20;99.90;;;;;;5151755;28;20058;-62
2022/06/11 06:05:06;;;;;;;2.10;1.88;;;19.40;99.90;;;;;;5150286;28;20068;-61
2022/06/11 06:07:45;;;;;;;3.45;1.90;;;19.50;99.90;;;;;;5155732;28;20042;-62
2022/06/11 06:10:22;;;;;;;2.58;1.90;;;19.60;99.90;;;;;;5171502;28;20038;-61
2022/06/11 06:12:56;;;;;;;3.00;1.90;;;19.50;99.90;;;;;;5166957;28;20049;-62
2022/06/11 06:15:30;;;;;;;4.93;2.25;;;19.50;99.90;;;;;;5156235;28;20046;-62
2022/06/11 06:18:09;;;;;;;2.97;2.20;;;19.70;99.90;;;;;;5156715;28;20044;-61
2022/06/11 06:20:41;;;;;;;1.77;1.67;;;19.60;99.90;;;;;;5173720;28;20052;-61
2022/06/11 06:23:16;;;;;;;3.72;2.03;;;19.60;99.90;;;;;;5157054;28;20038;-62
2022/06/11 06:25:49;;;;;;;2.28;2.00;;;19.80;99.90;;;;;;5140924;28;20049;-64
2022/06/11 06:28:22;;;;;;;1.75;1.50;;;19.80;99.90;;;;;;5159159;28;20054;-61
2022/06/11 06:30:54;;;;;;;2.17;2.00;;;20.00;99.90;;;;;;5170463;28;20047;-61
2022/06/11 06:33:30;;;;;;;4.38;1.77;;;20.00;99.90;;;;;;5173183;28;20046;-62
2022/06/11 06:36:05;;;;;;;3.10;1.90;;;20.10;99.90;;;;;;5173242;28;20061;-63
2022/06/11 06:38:47;;;;;;;3.78;1.80;;;20.30;99.90;;;;;;5155851;28;20058;-62
2022/06/11 06:41:22;;;;;;;3.08;2.28;;;20.00;99.90;;;;;;5154856;28;20026;-63
2022/06/11 06:43:56;;;;;;;2.00;1.90;;;20.00;99.90;;;;;;5172894;28;20057;-65
2022/06/11 06:46:33;;;;;;;2.50;2.05;;;19.80;99.90;;;;;;5172722;28;20149;-61
2022/06/11 06:49:08;;;;;;;1.95;1.80;;;20.20;99.90;;;;;;5172484;28;20515;-62
2022/06/11 06:51:40;;;;;;;1.80;1.70;;;20.20;99.90;;;;;;5171742;28;20064;-61
2022/06/11 06:54:15;;;;;;;3.75;2.38;;;20.30;99.90;;;;;;5157585;28;20308;-62
2022/06/11 06:56:52;;;;;;;2.83;2.53;;;20.30;99.90;;;;;;5172498;28;20446;-61
2022/06/11 06:59:32;;;;;;;3.03;2.10;;;20.60;99.90;;;;;;5167567;28;20239;-62
2022/06/11 07:02:06;;;;;;;2.22;1.65;;;20.50;99.90;;;;;;5136360;28;20048;-61
2022/06/11 07:04:38;;;;;;;2.38;2.17;;;20.30;99.90;;;;;;5145552;28;20046;-61
2022/06/11 07:07:17;;;;;;;2.33;2.00;;;20.30;99.90;;;;;;5125216;28;20045;-61
2022/06/11 07:09:59;;;;;;;2.42;2.22;;;20.40;99.90;;;;;;5167679;28;20042;-61
2022/06/11 07:12:30;;;;;;;3.05;1.55;;;20.60;99.90;;;;;;5157767;28;20040;-60
2022/06/11 07:15:06;;;;;;;7.65;2.67;;;20.80;99.90;;;;;;5172820;28;20379;-63
2022/06/11 07:17:45;;;;;;;1.90;1.80;;;20.70;99.90;;;;;;5172595;28;20227;-63
2022/06/11 07:20:25;;;;;;;2.28;1.80;;;20.70;99.90;;;;;;5155840;28;20049;-62
2022/06/11 07:23:14;;;;;;;2.03;1.83;;;20.70;99.90;;;;;;5159088;28;20037;-61
2022/06/11 07:25:50;;;;;;;2.00;1.90;;;20.80;99.90;;;;;;5182513;28;20064;-61
2022/06/11 07:28:31;;;;;;;1.98;1.85;;;20.60;99.90;;;;;;5172531;28;20046;-62
2022/06/11 07:31:02;;;;;;;2.42;2.20;;;20.80;99.90;;;;;;5156163;28;20134;-62
2022/06/11 07:33:37;;;;;;;3.42;2.45;;;20.90;99.90;;;;;;5171628;28;20042;-61
2022/06/11 07:36:12;;;;;;;2.50;2.30;;;20.90;99.90;;;;;;5124056;28;20371;-62
2022/06/11 07:38:45;;;;;;;3.25;2.08;;;21.10;99.90;;;;;;5155992;28;20341;-62
2022/06/11 07:41:18;;;;;;;2.40;2.20;;;21.00;99.90;;;;;;5172043;28;20042;-62
2022/06/11 07:43:49;;;;;;;2.13;1.67;;;21.10;99.90;;;;;;5172681;28;20048;-62
2022/06/11 07:46:23;;;;;;;3.05;1.88;;;21.30;99.90;;;;;;5171857;28;20087;-65
2022/06/11 07:49:00;;;;;;;4.38;2.00;;;21.50;99.90;;;;;;5155473;28;20050;-61
2022/06/11 07:51:35;;;;;;;1.80;1.70;;;21.50;99.90;;;;;;5171476;28;20046;-63
2022/06/11 07:54:09;;;;;;;;;;;21.50;99.90;;;;;;5157076;28;20037;-60
2022/06/11 07:56:46;;;;;;;2.17;1.92;;;21.60;99.90;;;;;;5171746;28;19918;-62
2022/06/11 07:59:20;;;;;;;3.63;2.17;;;21.90;99.90;;;;;;5172237;28;20419;-61
2022/06/11 08:01:57;;;;;;;2.63;2.10;;;22.10;99.90;;;;;;5159141;28;20034;-61
2022/06/11 08:04:28;;;;;;;1.90;1.75;;;21.90;99.90;;;;;;5165494;28;20069;-61
2022/06/11 08:07:02;;;;;;;2.10;1.90;;;21.60;99.90;;;;;;5171040;28;20046;-62
2022/06/11 08:09:34;;;;;;;;;;;21.40;99.90;;;;;;5139670;28;20351;-62
2022/06/11 08:12:09;;;;;;;2.28;2.10;;;21.70;99.90;;;;;;5156754;28;19924;-61
2022/06/11 08:14:43;;;;;;;1.80;1.70;;;21.60;99.90;;;;;;5169741;28;20060;-62
2022/06/11 08:17:14;;;;;;;2.15;1.95;;;21.80;99.90;;;;;;5155985;28;20046;-61
2022/06/11 08:19:51;;;;;;;2.50;2.30;;;21.70;99.90;;;;;;5156214;28;20042;-61
2022/06/11 08:22:25;;;;;;;2.00;1.90;;;21.60;99.90;;;;;;5139176;28;20042;-62
2022/06/11 08:24:57;;;;;;;;;;;21.90;99.90;;;;;;5175059;28;20053;-63
2022/06/11 08:27:29;;;;;;;2.08;1.63;;;22.20;99.90;;;;;;5191827;28;20206;-62
2022/06/11 08:30:05;;;;;;;2.13;1.80;;;22.20;99.90;;;;;;5176364;28;20060;-62
2022/06/11 08:32:37;;;;;;;1.88;1.77;;;21.90;99.90;;;;;;5180664;28;20390;-62
2022/06/11 08:35:13;;;;;;;2.15;1.75;;;21.90;99.90;;;;;;5169241;28;20026;-64
2022/06/11 08:37:48;;;;;;;2.33;2.10;;;22.10;99.90;;;;;;5154107;28;20065;-63
2022/06/11 08:40:36;;;;;;;2.20;2.00;;;22.60;99.90;;;;;;5170380;28;20335;-62
2022/06/11 08:43:41;;;;;;;2.55;1.60;;;22.50;99.90;;;;;;5155501;28;20038;-62
2022/06/11 08:46:18;;;;;;;2.35;2.15;;;22.30;99.90;;;;;;5154169;28;20042;-62
2022/06/11 08:49:04;;;;;;;1.90;1.80;;;22.30;99.90;;;;;;5171429;28;20053;-62
2022/06/11 08:51:43;;;;;;;2.33;2.10;;;22.30;99.90;;;;;;5167073;28;20061;-62
2022/06/11 08:54:33;;;;;;;2.15;1.95;;;22.40;99.90;;;;;;5167295;28;20311;-62
2022/06/11 08:57:22;;;;;;;1.80;1.70;;;22.50;99.90;;;;;;5149045;28;20335;-63
2022/06/11 09:00:18;;;;;;;2.67;1.58;;;22.70;99.90;;;;;;5166862;28;20031;-63
2022/06/11 09:03:29;;;;;;;2.67;2.00;;;23.10;99.90;;;;;;5154901;28;20453;-63
2022/06/11 09:06:37;;;;;;;1.60;1.50;;;23.10;99.90;;;;;;5155429;28;20524;-62
2022/06/11 09:09:41;;;;;;;1.73;1.63;;;23.20;99.90;;;;;;5167659;28;20512;-63
2022/06/11 09:12:19;;;;;;;1.73;1.58;;;23.80;99.90;;;;;;5168737;28;20259;-65
2022/06/11 09:15:34;;;;;;;3.13;1.77;;;23.30;99.90;;;;;;5166122;28;20035;-62
2022/06/11 09:18:32;;;;;;;2.03;1.67;;;23.50;99.90;;;;;;5136214;28;20340;-63
2022/06/11 09:21:31;;;;;;;1.58;1.48;;;23.60;99.90;;;;;;5167086;28;20047;-62
2022/06/11 09:24:27;;;;;;;3.17;1.63;;;23.40;99.90;;;;;;5172007;28;20064;-63
2022/06/11 09:27:46;;;;;;;1.85;1.48;;;23.60;99.90;;;;;;5158291;28;20049;-63
2022/06/11 09:30:32;;;;;;;3.67;1.70;;;23.70;99.90;;;;;;5156522;28;20265;-62
2022/06/11 09:33:26;;;;;;;1.60;1.50;;;23.70;99.90;;;;;;5173608;28;20065;-64
2022/06/11 09:36:08;;;;;;;2.35;1.40;;;23.50;99.90;;;;;;5169938;28;20044;-62
2022/06/11 09:38:48;;;;;;;1.88;1.50;;;23.50;99.90;;;;;;5174152;28;20042;-62
2022/06/11 09:41:39;;;;;;;2.25;1.75;;;23.30;99.90;;;;;;5158825;28;20038;-63
2022/06/11 09:44:56;;;;;;;0.98;0.98;;;23.20;99.90;;;;;;5174079;28;20342;-62
2022/06/11 09:47:57;;;;;;;2.17;1.48;;;24.50;99.90;;;;;;5159449;28;20050;-63
2022/06/11 09:50:57;;;;;;;2.35;1.55;;;24.90;99.90;;;;;;5158436;28;20046;-63
2022/06/11 09:53:57;;;;;;;1.35;1.25;;;24.10;99.90;;;;;;5174544;28;20212;-64
2022/06/11 09:56:44;;;;;;;2.75;1.50;;;24.20;99.90;;;;;;5173382;28;20337;-63
2022/06/11 09:59:35;;;;;;;3.47;2.05;;;23.50;99.90;;;;;;5174275;28;20040;-63
2022/06/11 10:02:09;;;;;;;1.80;1.52;;;23.90;99.90;;;;;;5171811;28;20042;-62
2022/06/11 10:04:50;;;;;;;1.40;1.30;;;24.00;99.90;;;;;;5153683;28;20064;-63
2022/06/11 10:07:51;;;;;;;3.22;2.08;;;24.20;99.90;;;;;;5158775;28;20042;-63
2022/06/11 10:10:31;;;;;;;1.50;1.40;;;24.70;99.90;;;;;;5160162;28;20288;-62
2022/06/11 10:13:33;;;;;;;1.75;1.50;;;24.20;99.90;;;;;;5158984;28;20255;-63
2022/06/11 10:16:31;;;;;;;4.38;1.40;;;24.00;99.90;;;;;;5158701;28;20032;-63
2022/06/11 10:19:39;;;;;;;1.63;1.48;;;24.30;99.90;;;;;;5173050;28;20038;-63
2022/06/11 10:22:24;;;;;;;1.60;1.50;;;25.60;99.90;;;;;;5145651;28;20347;-62
2022/06/11 10:25:12;;;;;;;1.52;1.42;;;24.40;99.90;;;;;;5168036;28;20457;-63
2022/06/11 10:27:57;;;;;;;3.28;1.50;;;24.70;99.90;;;;;;5180049;28;20327;-63
2022/06/11 10:30:47;;;;;;;1.38;1.27;;;25.30;99.90;;;;;;5153907;28;20026;-63
2022/06/11 10:33:48;;;;;;;1.30;1.20;;;25.10;99.90;;;;;;5159220;28;20312;-63
2022/06/11 10:36:39;;;;;;;1.60;1.50;;;24.30;99.90;;;;;;5179425;28;20327;-63
2022/06/11 10:39:33;;;;;;;2.03;1.67;;;24.40;99.90;;;;;;5162741;28;20046;-62
2022/06/11 10:42:56;;;;;;;1.40;1.30;;;24.60;99.90;;;;;;5174342;28;20046;-63
2022/06/11 10:45:33;;;;;;;1.30;1.20;;;24.80;99.90;;;;;;5161578;28;20045;-63
2022/06/11 10:48:20;;;;;;;1.60;1.20;;;25.70;99.90;;;;;;5162178;28;20038;-62
2022/06/11 10:50:55;;;;;;;2.58;1.20;;;26.20;99.90;;;;;;5147259;28;20223;-63
2022/06/11 10:54:07;;;;;;;1.48;1.38;;;27.10;99.90;;;;;;5157462;28;20369;-63
2022/06/11 10:56:58;;;;;;;7.72;1.98;;;26.80;99.90;;;;;;5157053;28;20064;-63
2022/06/11 10:59:36;;;;;;;3.60;1.48;;;27.20;99.90;;;;;;5156252;28;20329;-63
2022/06/11 11:02:25;;;;;;;1.25;1.17;;;26.70;99.90;;;;;;5153064;28;20338;-62
2022/06/11 11:05:08;;;;;;;3.28;1.20;;;26.10;99.90;;;;;;5146112;28;20355;-62
2022/06/11 11:07:54;;;;;;;2.05;1.20;;;26.10;99.90;;;;;;5148741;28;20564;-63
2022/06/11 11:10:35;;;;;;;2.15;1.40;;;25.90;99.90;;;;;;5168105;28;20049;-62
2022/06/11 11:13:25;;;;;;;2.15;1.63;;;26.50;99.90;;;;;;5157515;28;20054;-64
2022/06/11 11:16:12;;;;;;;1.30;1.10;;;27.70;99.90;;;;;;5174792;28;20030;-63
2022/06/11 11:19:02;;;;;;;1.25;1.15;;;27.20;99.90;;;;;;5177329;28;20460;-63
2022/06/11 11:21:42;;;;;;;1.27;1.15;;;26.90;99.90;;;;;;5181405;28;20054;-64
2022/06/11 11:24:21;;;;;;;1.55;1.45;;;27.10;99.90;;;;;;5187321;28;20044;-64
2022/06/11 11:27:20;;;;;;;2.03;1.25;;;27.70;99.90;;;;;;5171993;28;20026;-64
2022/06/11 11:30:05;;;;;;;1.30;1.20;;;27.40;99.90;;;;;;5168159;28;20417;-63
2022/06/11 11:32:39;;;;;;;1.90;1.20;;;29.00;99.90;;;;;;5140743;28;20534;-64
2022/06/11 11:35:23;;;;;;;1.42;1.20;;;27.50;99.90;;;;;;5173234;28;20038;-63
2022/06/11 11:38:00;;;;;;;1.60;1.50;;;27.10;99.90;;;;;;5151669;28;20067;-63
2022/06/11 11:40:37;;;;;;;1.48;1.38;;;27.50;99.90;;;;;;5146159;28;20268;-63
2022/06/11 11:43:16;;;;;;;4.10;1.55;;;27.90;99.90;;;;;;5168981;28;20049;-63
2022/06/11 11:46:01;;;;;;;1.30;1.20;;;29.30;99.90;;;;;;5167929;28;20049;-65
2022/06/11 11:48:42;;;;;;;1.20;1.10;;;28.40;99.90;;;;;;5140611;28;20270;-64
2022/06/11 11:51:52;;;;;;;1.38;1.15;;;29.10;99.90;;;;;;5154814;28;20417;-63
2022/06/11 11:54:33;;;;;;;1.20;1.20;;;28.50;99.90;;;;;;5211663;28;20041;-64
2022/06/11 11:57:19;;;;;;;3.42;1.08;;;29.00;99.90;;;;;;5177693;28;20270;-63
2022/06/11 11:59:58;;;;;;;1.33;1.23;;;28.50;99.90;;;;;;5195191;28;20139;-65
2022/06/11 12:02:46;;;;;;;1.25;1.23;;;28.00;99.90;;;;;;5195674;28;20261;-63
2022/06/11 12:05:30;;;;;;;1.30;1.20;;;28.50;99.90;;;;;;5184559;28;20053;-62
2022/06/11 12:08:14;;;;;;;3.20;1.48;;;28.70;99.90;;;;;;5184326;28;20055;-63
2022/06/11 12:11:03;;;;;;;1.75;1.10;;;28.20;99.90;;;;;;5179030;28;20400;-63
2022/06/11 12:13:48;;;;;;;3.70;1.40;;;27.70;99.90;;;;;;5180371;28;20050;-63
2022/06/11 12:16:36;;;;;;;3.33;1.00;;;27.40;99.90;;;;;;5195182;28;20041;-64
2022/06/11 12:19:21;;;;;;;1.40;1.30;;;28.20;99.90;;;;;;5195515;28;20285;-64
2022/06/11 12:22:10;;;;;;;1.25;1.20;;;28.10;99.90;;;;;;5210294;28;20246;-64
2022/06/11 12:24:51;;;;;;;1.80;1.30;;;27.10;99.90;;;;;;5179038;28;20528;-63
2022/06/11 12:27:42;;;;;;;1.35;1.25;;;27.40;99.90;;;;;;5192411;28;20262;-62
2022/06/11 12:30:32;;;;;;;;;;;27.60;99.90;;;;;;5157455;28;20053;-63
2022/06/11 12:33:14;;;;;;;1.90;1.65;;;28.40;99.90;;;;;;5151005;28;20041;-63
2022/06/11 12:35:57;;;;;;;1.27;1.17;;;27.90;99.90;;;;;;5171513;28;20044;-62
2022/06/11 12:39:06;;;;;;;1.27;1.17;;;28.10;99.90;;;;;;5169774;28;20046;-63
2022/06/11 12:41:37;;;;;;;1.73;1.45;;;29.10;99.90;;;;;;5152784;28;20030;-64
2022/06/11 12:44:50;;;;;;;1.35;0.98;;;29.60;99.90;;;;;;5172054;28;20050;-64
2022/06/11 12:48:06;;;;;;;1.20;1.10;;;28.70;99.90;;;;;;5146743;28;20047;-65
2022/06/11 12:51:13;;;;;;;1.85;1.20;;;28.40;99.90;;;;;;5171013;28;20499;-64
2022/06/11 12:53:47;;;;;;;1.05;1.05;;;28.80;99.90;;;;;;5146308;28;20042;-64
2022/06/11 12:56:31;;;;;;;;;;;28.40;99.90;;;;;;5167767;28;20253;-64
2022/06/11 12:59:34;;;;;;;3.28;1.42;;;28.00;99.90;;;;;;5168861;28;19922;-65
2022/06/11 13:02:23;;;;;;;1.33;1.23;;;28.60;99.90;;;;;;5151850;28;20046;-63
2022/06/11 13:05:12;;;;;;;2.78;1.00;;;28.30;99.90;;;;;;5151939;28;20058;-63
2022/06/11 13:07:56;;;;;;;1.13;1.13;;;28.20;99.90;;;;;;5188284;28;20040;-62
2022/06/11 13:10:38;;;;;;;1.10;1.08;;;27.90;99.90;;;;;;5173460;28;20053;-64
2022/06/11 13:13:21;;;;;;;1.05;1.05;;;29.00;99.90;;;;;;5186824;28;20050;-63
2022/06/11 13:16:36;;;;;;;1.00;1.00;;;29.50;99.90;;;;;;5176121;28;20223;-63
2022/06/11 13:19:40;;;;;;;4.50;1.38;;;28.80;99.90;;;;;;5170245;28;20030;-63
2022/06/11 13:22:32;;;;;;;3.10;1.00;;;29.70;99.90;;;;;;5192278;28;20038;-64
2022/06/11 13:25:26;;;;;;;1.25;1.10;;;29.30;99.90;;;;;;5185075;28;20025;-65
2022/06/11 13:28:18;;;;;;;2.90;1.30;;;30.20;99.90;;;;;;5201073;28;20071;-64
2022/06/11 13:31:11;;;;;;;1.95;1.35;;;29.20;99.90;;;;;;5193683;28;20260;-64
2022/06/11 13:34:14;;;;;;;0.75;0.75;;;30.60;99.90;;;;;;5195346;28;20042;-64
2022/06/11 13:37:14;;;;;;;1.83;1.10;;;30.20;99.90;;;;;;5179333;28;20042;-64
2022/06/11 13:40:50;;;;;;;1.10;1.00;;;30.00;99.90;;;;;;5178285;28;20041;-64
2022/06/11 13:43:49;;;;;;;2.50;1.17;;;28.50;99.90;;;;;;5134545;28;20035;-64
2022/06/11 13:46:43;;;;;;;2.38;0.93;;;29.10;99.90;;;;;;5128973;28;20077;-63
2022/06/11 13:49:29;;;;;;;1.67;1.00;;;30.10;99.90;;;;;;5136744;28;20034;-64
2022/06/11 13:55:10;;;;;;;1.15;1.08;;;29.60;99.90;;;;;;5114670;28;20335;-64
2022/06/11 13:55:24;;;;;;;0.93;0.93;;;30.30;99.90;;;;;;5119639;28;20043;-63
2022/06/11 13:58:31;;;;;;;1.10;1.10;;;29.80;99.90;;;;;;5106707;28;20049;-63
2022/06/11 14:01:19;;;;;;;1.20;1.20;;;28.90;99.90;;;;;;5132751;28;20047;-64
2022/06/11 14:04:17;;;;;;;1.23;1.13;;;29.20;99.90;;;;;;5120154;28;20038;-65
2022/06/11 14:06:49;;;;;;;1.10;1.10;;;28.90;99.90;;;;;;5114107;28;20050;-65
2022/06/11 14:12:37;;;;;;;1.33;1.23;;;29.00;99.90;;;;;;5136283;28;20030;-64
2022/06/11 14:15:19;;;;;;;1.48;1.08;;;28.50;99.90;;;;;;5183679;28;20115;-65
2022/06/11 14:18:21;;;;;;;0.95;0.93;;;29.20;99.90;;;;;;5196953;28;20037;-63
2022/06/11 14:21:03;;;;;;;2.13;1.33;;;29.80;99.90;;;;;;5184153;28;20042;-65